sensor_id;sensor_type;location;lat;lon;timestamp;P1;durP1;ratioP1;P2;durP2;ratioP2
3777;SDS011;1904;50.076;8.660;2023-08-21T00:01:42;46.50;;;10.20;;
3777;SDS011;1904;50.076;8.660;2023-08-21T00:07:36;43.43;;;10.20;;
3777;SDS011;1904;50.076;8.660;2023-08-21T00:10:06;43.87;;;9.40;;
3777;SDS011;1904;50.076;8.660;2023-08-21T00:12:42;46.13;;;10.63;;
3777;SDS011;1904;50.076;8.660;2023-08-21T00:21:31;41.70;;;10.33;;
3777;SDS011;1904;50.076;8.660;2023-08-21T00:24:00;51.13;;;10.83;;
3777;SDS011;1904;50.076;8.660;2023-08-21T00:35:42;43.20;;;9.73;;
3777;SDS011;1904;50.076;8.660;2023-08-21T00:38:18;46.90;;;10.53;;
3777;SDS011;1904;50.076;8.660;2023-08-21T00:40:48;44.63;;;10.83;;
3777;SDS011;1904;50.076;8.660;2023-08-21T00:43:18;43.20;;;10.23;;
3777;SDS011;1904;50.076;8.660;2023-08-21T00:49:12;48.73;;;10.97;;
3777;SDS011;1904;50.076;8.660;2023-08-21T00:51:48;40.87;;;10.00;;
3777;SDS011;1904;50.076;8.660;2023-08-21T00:54:18;38.77;;;10.50;;
3777;SDS011;1904;50.076;8.660;2023-08-21T00:56:48;38.20;;;9.93;;
3777;SDS011;1904;50.076;8.660;2023-08-21T00:59:17;38.37;;;10.00;;
3777;SDS011;1904;50.076;8.660;2023-08-21T01:01:54;40.20;;;9.70;;
3777;SDS011;1904;50.076;8.660;2023-08-21T01:07:19;42.97;;;10.57;;
3777;SDS011;1904;50.076;8.660;2023-08-21T01:13:17;39.93;;;10.33;;
3777;SDS011;1904;50.076;8.660;2023-08-21T01:22:48;47.53;;;10.27;;
3777;SDS011;1904;50.076;8.660;2023-08-21T01:25:15;38.33;;;10.20;;
3777;SDS011;1904;50.076;8.660;2023-08-21T01:27:44;41.80;;;10.57;;
3777;SDS011;1904;50.076;8.660;2023-08-21T01:30:18;40.37;;;11.07;;
3777;SDS011;1904;50.076;8.660;2023-08-21T01:35:36;39.40;;;11.03;;
3777;SDS011;1904;50.076;8.660;2023-08-21T01:38:06;50.13;;;11.80;;
3777;SDS011;1904;50.076;8.660;2023-08-21T01:43:24;50.00;;;10.90;;
3777;SDS011;1904;50.076;8.660;2023-08-21T01:45:50;44.00;;;10.93;;
3777;SDS011;1904;50.076;8.660;2023-08-21T01:48:30;48.47;;;12.40;;
3777;SDS011;1904;50.076;8.660;2023-08-21T01:51:12;43.47;;;10.70;;
3777;SDS011;1904;50.076;8.660;2023-08-21T01:53:48;44.00;;;11.07;;
3777;SDS011;1904;50.076;8.660;2023-08-21T01:59:36;42.13;;;10.40;;
3777;SDS011;1904;50.076;8.660;2023-08-21T02:05:06;45.43;;;10.60;;
3777;SDS011;1904;50.076;8.660;2023-08-21T02:07:42;50.80;;;11.60;;
3777;SDS011;1904;50.076;8.660;2023-08-21T02:10:08;46.27;;;10.67;;
3777;SDS011;1904;50.076;8.660;2023-08-21T02:12:49;40.47;;;10.23;;
3777;SDS011;1904;50.076;8.660;2023-08-21T02:15:18;41.13;;;11.07;;
3777;SDS011;1904;50.076;8.660;2023-08-21T02:17:47;42.33;;;11.63;;
3777;SDS011;1904;50.076;8.660;2023-08-21T02:20:13;42.77;;;11.33;;
3777;SDS011;1904;50.076;8.660;2023-08-21T02:22:54;40.27;;;10.80;;
3777;SDS011;1904;50.076;8.660;2023-08-21T02:35:30;40.40;;;10.70;;
3777;SDS011;1904;50.076;8.660;2023-08-21T02:47:01;44.50;;;11.53;;
3777;SDS011;1904;50.076;8.660;2023-08-21T02:52:18;41.07;;;11.63;;
3777;SDS011;1904;50.076;8.660;2023-08-21T02:54:48;45.27;;;12.17;;
3777;SDS011;1904;50.076;8.660;2023-08-21T02:57:24;41.40;;;11.23;;
3777;SDS011;1904;50.076;8.660;2023-08-21T03:03:06;42.20;;;11.50;;
3777;SDS011;1904;50.076;8.660;2023-08-21T03:11:30;40.27;;;11.20;;
3777;SDS011;1904;50.076;8.660;2023-08-21T03:14:00;43.97;;;12.00;;
3777;SDS011;1904;50.076;8.660;2023-08-21T03:16:42;45.03;;;11.33;;
3777;SDS011;1904;50.076;8.660;2023-08-21T03:19:12;44.23;;;11.63;;
3777;SDS011;1904;50.076;8.660;2023-08-21T03:21:42;48.40;;;13.17;;
3777;SDS011;1904;50.076;8.660;2023-08-21T03:24:12;46.63;;;12.27;;
3777;SDS011;1904;50.076;8.660;2023-08-21T03:32:54;40.17;;;11.03;;
3777;SDS011;1904;50.076;8.660;2023-08-21T03:35:36;52.47;;;11.20;;
3777;SDS011;1904;50.076;8.660;2023-08-21T03:38:06;43.17;;;11.53;;
3777;SDS011;1904;50.076;8.660;2023-08-21T03:40:37;54.37;;;12.03;;
3777;SDS011;1904;50.076;8.660;2023-08-21T03:43:18;44.20;;;11.70;;
3777;SDS011;1904;50.076;8.660;2023-08-21T03:51:56;43.00;;;12.30;;
3777;SDS011;1904;50.076;8.660;2023-08-21T03:54:36;45.77;;;12.03;;
3777;SDS011;1904;50.076;8.660;2023-08-21T04:00:23;44.10;;;11.70;;
3777;SDS011;1904;50.076;8.660;2023-08-21T04:06:18;40.60;;;11.87;;
3777;SDS011;1904;50.076;8.660;2023-08-21T04:11:32;47.00;;;12.53;;
3777;SDS011;1904;50.076;8.660;2023-08-21T04:16:48;46.80;;;12.83;;
3777;SDS011;1904;50.076;8.660;2023-08-21T04:25:49;47.00;;;13.20;;
3777;SDS011;1904;50.076;8.660;2023-08-21T04:34:18;46.63;;;12.83;;
3777;SDS011;1904;50.076;8.660;2023-08-21T04:43:06;43.97;;;11.80;;
3777;SDS011;1904;50.076;8.660;2023-08-21T04:48:19;48.40;;;13.20;;
3777;SDS011;1904;50.076;8.660;2023-08-21T04:50:54;46.87;;;12.10;;
3777;SDS011;1904;50.076;8.660;2023-08-21T04:53:24;45.60;;;13.67;;
3777;SDS011;1904;50.076;8.660;2023-08-21T04:56:00;45.50;;;12.67;;
3777;SDS011;1904;50.076;8.660;2023-08-21T05:01:24;50.53;;;13.00;;
3777;SDS011;1904;50.076;8.660;2023-08-21T05:07:12;47.60;;;13.90;;
3777;SDS011;1904;50.076;8.660;2023-08-21T05:09:42;44.43;;;12.83;;
3777;SDS011;1904;50.076;8.660;2023-08-21T05:12:24;50.17;;;12.73;;
3777;SDS011;1904;50.076;8.660;2023-08-21T05:14:54;47.97;;;12.63;;
3777;SDS011;1904;50.076;8.660;2023-08-21T05:17:36;47.00;;;12.07;;
3777;SDS011;1904;50.076;8.660;2023-08-21T05:23:36;47.97;;;12.97;;
3777;SDS011;1904;50.076;8.660;2023-08-21T05:29:00;43.90;;;12.20;;
3777;SDS011;1904;50.076;8.660;2023-08-21T05:37:42;43.53;;;12.23;;
3777;SDS011;1904;50.076;8.660;2023-08-21T05:40:18;41.70;;;12.00;;
3777;SDS011;1904;50.076;8.660;2023-08-21T05:42:54;43.43;;;12.07;;
3777;SDS011;1904;50.076;8.660;2023-08-21T05:45:24;41.70;;;11.60;;
3777;SDS011;1904;50.076;8.660;2023-08-21T05:47:50;46.60;;;12.53;;
3777;SDS011;1904;50.076;8.660;2023-08-21T05:50:18;43.20;;;11.57;;
3777;SDS011;1904;50.076;8.660;2023-08-21T05:52:48;43.07;;;11.67;;
3777;SDS011;1904;50.076;8.660;2023-08-21T05:55:18;43.83;;;11.60;;
3777;SDS011;1904;50.076;8.660;2023-08-21T06:06:24;46.87;;;11.33;;
3777;SDS011;1904;50.076;8.660;2023-08-21T06:08:54;43.43;;;11.87;;
3777;SDS011;1904;50.076;8.660;2023-08-21T06:11:26;43.30;;;10.33;;
3777;SDS011;1904;50.076;8.660;2023-08-21T06:13:54;43.97;;;12.00;;
3777;SDS011;1904;50.076;8.660;2023-08-21T06:16:30;39.93;;;10.47;;
3777;SDS011;1904;50.076;8.660;2023-08-21T06:27:38;40.47;;;10.80;;
3777;SDS011;1904;50.076;8.660;2023-08-21T06:30:04;46.73;;;11.43;;
3777;SDS011;1904;50.076;8.660;2023-08-21T06:35:20;36.27;;;8.90;;
3777;SDS011;1904;50.076;8.660;2023-08-21T06:37:48;45.53;;;10.40;;
3777;SDS011;1904;50.076;8.660;2023-08-21T06:40:18;44.93;;;10.30;;
3777;SDS011;1904;50.076;8.660;2023-08-21T06:46:01;43.00;;;9.90;;
3777;SDS011;1904;50.076;8.660;2023-08-21T06:48:30;43.00;;;9.40;;
3777;SDS011;1904;50.076;8.660;2023-08-21T06:51:00;41.13;;;9.03;;
3777;SDS011;1904;50.076;8.660;2023-08-21T06:53:30;37.90;;;9.13;;
3777;SDS011;1904;50.076;8.660;2023-08-21T06:56:00;38.37;;;9.30;;
3777;SDS011;1904;50.076;8.660;2023-08-21T06:58:36;37.10;;;9.30;;
3777;SDS011;1904;50.076;8.660;2023-08-21T07:04:24;41.00;;;9.13;;
3777;SDS011;1904;50.076;8.660;2023-08-21T07:07:00;40.00;;;9.37;;
3777;SDS011;1904;50.076;8.660;2023-08-21T07:12:48;36.57;;;8.63;;
3777;SDS011;1904;50.076;8.660;2023-08-21T07:25:12;53.20;;;9.80;;
3777;SDS011;1904;50.076;8.660;2023-08-21T07:27:38;43.07;;;9.50;;
3777;SDS011;1904;50.076;8.660;2023-08-21T07:30:12;37.70;;;9.27;;
3777;SDS011;1904;50.076;8.660;2023-08-21T07:32:54;33.97;;;8.47;;
3777;SDS011;1904;50.076;8.660;2023-08-21T07:35:24;36.10;;;8.30;;
3777;SDS011;1904;50.076;8.660;2023-08-21T07:38:00;38.00;;;8.70;;
3777;SDS011;1904;50.076;8.660;2023-08-21T07:40:30;38.90;;;8.90;;
3777;SDS011;1904;50.076;8.660;2023-08-21T07:52:02;39.33;;;9.27;;
3777;SDS011;1904;50.076;8.660;2023-08-21T07:54:30;40.53;;;8.53;;
3777;SDS011;1904;50.076;8.660;2023-08-21T07:57:00;38.63;;;8.70;;
3777;SDS011;1904;50.076;8.660;2023-08-21T07:59:30;37.67;;;8.50;;
3777;SDS011;1904;50.076;8.660;2023-08-21T08:02:00;34.73;;;8.10;;
3777;SDS011;1904;50.076;8.660;2023-08-21T08:04:30;42.27;;;8.53;;
3777;SDS011;1904;50.076;8.660;2023-08-21T08:07:00;44.03;;;8.70;;
3777;SDS011;1904;50.076;8.660;2023-08-21T08:09:30;35.80;;;8.00;;
3777;SDS011;1904;50.076;8.660;2023-08-21T08:12:00;35.77;;;8.43;;
3777;SDS011;1904;50.076;8.660;2023-08-21T08:14:30;40.80;;;9.13;;
3777;SDS011;1904;50.076;8.660;2023-08-21T08:17:00;36.57;;;8.50;;
3777;SDS011;1904;50.076;8.660;2023-08-21T08:19:30;36.83;;;8.33;;
3777;SDS011;1904;50.076;8.660;2023-08-21T08:25:00;34.57;;;8.43;;
3777;SDS011;1904;50.076;8.660;2023-08-21T08:27:30;47.40;;;8.77;;
3777;SDS011;1904;50.076;8.660;2023-08-21T08:30:00;36.70;;;9.00;;
3777;SDS011;1904;50.076;8.660;2023-08-21T08:32:30;40.97;;;8.43;;
3777;SDS011;1904;50.076;8.660;2023-08-21T08:35:00;37.50;;;9.00;;
3777;SDS011;1904;50.076;8.660;2023-08-21T08:37:26;36.47;;;8.00;;
3777;SDS011;1904;50.076;8.660;2023-08-21T08:42:54;37.13;;;8.90;;
3777;SDS011;1904;50.076;8.660;2023-08-21T08:45:30;39.23;;;8.77;;
3777;SDS011;1904;50.076;8.660;2023-08-21T08:47:59;35.63;;;9.20;;
3777;SDS011;1904;50.076;8.660;2023-08-21T08:50:31;36.90;;;8.30;;
3777;SDS011;1904;50.076;8.660;2023-08-21T08:53:00;40.20;;;9.07;;
3777;SDS011;1904;50.076;8.660;2023-08-21T08:55:27;33.60;;;8.07;;
3777;SDS011;1904;50.076;8.660;2023-08-21T08:58:00;34.13;;;7.70;;
3777;SDS011;1904;50.076;8.660;2023-08-21T09:00:31;38.00;;;8.20;;
3777;SDS011;1904;50.076;8.660;2023-08-21T09:03:00;35.50;;;8.80;;
3777;SDS011;1904;50.076;8.660;2023-08-21T09:11:54;36.83;;;7.93;;
3777;SDS011;1904;50.076;8.660;2023-08-21T09:14:30;41.50;;;8.50;;
3777;SDS011;1904;50.076;8.660;2023-08-21T09:17:07;40.27;;;8.17;;
3777;SDS011;1904;50.076;8.660;2023-08-21T09:22:24;35.33;;;7.57;;
3777;SDS011;1904;50.076;8.660;2023-08-21T09:25:01;37.43;;;8.13;;
3777;SDS011;1904;50.076;8.660;2023-08-21T09:33:30;32.43;;;7.50;;
3777;SDS011;1904;50.076;8.660;2023-08-21T09:36:06;34.10;;;8.03;;
3777;SDS011;1904;50.076;8.660;2023-08-21T09:38:45;34.37;;;7.70;;
3777;SDS011;1904;50.076;8.660;2023-08-21T09:41:26;37.00;;;7.27;;
3777;SDS011;1904;50.076;8.660;2023-08-21T09:43:52;34.37;;;7.47;;
3777;SDS011;1904;50.076;8.660;2023-08-21T09:46:30;40.10;;;7.80;;
3777;SDS011;1904;50.076;8.660;2023-08-21T09:49:06;37.40;;;7.70;;
3777;SDS011;1904;50.076;8.660;2023-08-21T09:51:32;43.97;;;7.83;;
3777;SDS011;1904;50.076;8.660;2023-08-21T09:54:06;34.03;;;7.00;;
3777;SDS011;1904;50.076;8.660;2023-08-21T09:59:32;35.80;;;6.83;;
3777;SDS011;1904;50.076;8.660;2023-08-21T10:02:00;33.17;;;7.07;;
3777;SDS011;1904;50.076;8.660;2023-08-21T10:04:36;37.27;;;7.10;;
3777;SDS011;1904;50.076;8.660;2023-08-21T10:07:06;30.77;;;6.30;;
3777;SDS011;1904;50.076;8.660;2023-08-21T10:09:34;31.03;;;6.27;;
3777;SDS011;1904;50.076;8.660;2023-08-21T10:12:00;36.80;;;6.97;;
3777;SDS011;1904;50.076;8.660;2023-08-21T10:17:14;40.13;;;6.90;;
3777;SDS011;1904;50.076;8.660;2023-08-21T10:19:40;36.23;;;6.20;;
3777;SDS011;1904;50.076;8.660;2023-08-21T10:22:12;33.07;;;5.67;;
3777;SDS011;1904;50.076;8.660;2023-08-21T10:24:48;36.13;;;6.10;;
3777;SDS011;1904;50.076;8.660;2023-08-21T10:27:15;31.53;;;5.70;;
3777;SDS011;1904;50.076;8.660;2023-08-21T10:29:57;36.00;;;5.70;;
3777;SDS011;1904;50.076;8.660;2023-08-21T10:32:30;29.93;;;5.30;;
3777;SDS011;1904;50.076;8.660;2023-08-21T10:35:06;33.40;;;6.30;;
3777;SDS011;1904;50.076;8.660;2023-08-21T10:43:54;31.10;;;5.13;;
3777;SDS011;1904;50.076;8.660;2023-08-21T10:49:17;31.70;;;4.40;;
3777;SDS011;1904;50.076;8.660;2023-08-21T10:51:49;28.60;;;4.37;;
3777;SDS011;1904;50.076;8.660;2023-08-21T10:57:25;28.50;;;3.77;;
3777;SDS011;1904;50.076;8.660;2023-08-21T10:59:56;29.43;;;3.90;;
3777;SDS011;1904;50.076;8.660;2023-08-21T11:02:37;30.87;;;4.70;;
3777;SDS011;1904;50.076;8.660;2023-08-21T11:11:12;28.07;;;4.50;;
3777;SDS011;1904;50.076;8.660;2023-08-21T11:13:48;35.27;;;4.60;;
3777;SDS011;1904;50.076;8.660;2023-08-21T11:16:18;30.23;;;5.13;;
3777;SDS011;1904;50.076;8.660;2023-08-21T11:18:54;29.43;;;4.70;;
3777;SDS011;1904;50.076;8.660;2023-08-21T11:21:36;29.50;;;5.37;;
3777;SDS011;1904;50.076;8.660;2023-08-21T11:33:26;28.83;;;4.47;;
3777;SDS011;1904;50.076;8.660;2023-08-21T11:36:00;31.40;;;5.33;;
3777;SDS011;1904;50.076;8.660;2023-08-21T11:41:26;29.03;;;4.80;;
3777;SDS011;1904;50.076;8.660;2023-08-21T11:44:03;32.37;;;4.70;;
3777;SDS011;1904;50.076;8.660;2023-08-21T11:52:37;27.40;;;4.37;;
3777;SDS011;1904;50.076;8.660;2023-08-21T11:55:12;28.77;;;4.73;;
3777;SDS011;1904;50.076;8.660;2023-08-21T11:57:50;28.53;;;4.27;;
3777;SDS011;1904;50.076;8.660;2023-08-21T12:00:18;28.00;;;3.37;;
3777;SDS011;1904;50.076;8.660;2023-08-21T12:02:53;31.50;;;4.30;;
3777;SDS011;1904;50.076;8.660;2023-08-21T12:05:30;26.77;;;3.80;;
3777;SDS011;1904;50.076;8.660;2023-08-21T12:11:30;31.10;;;3.63;;
3777;SDS011;1904;50.076;8.660;2023-08-21T12:14:06;28.20;;;3.50;;
3777;SDS011;1904;50.076;8.660;2023-08-21T12:16:37;28.07;;;3.30;;
3777;SDS011;1904;50.076;8.660;2023-08-21T12:19:02;26.37;;;3.40;;
3777;SDS011;1904;50.076;8.660;2023-08-21T12:21:36;27.90;;;3.27;;
3777;SDS011;1904;50.076;8.660;2023-08-21T12:24:06;25.27;;;2.80;;
3777;SDS011;1904;50.076;8.660;2023-08-21T12:26:36;25.63;;;2.60;;
3777;SDS011;1904;50.076;8.660;2023-08-21T12:35:36;32.33;;;4.00;;
3777;SDS011;1904;50.076;8.660;2023-08-21T12:38:18;29.60;;;2.70;;
3777;SDS011;1904;50.076;8.660;2023-08-21T12:43:36;26.30;;;2.80;;
3777;SDS011;1904;50.076;8.660;2023-08-21T12:46:02;30.40;;;3.00;;
3777;SDS011;1904;50.076;8.660;2023-08-21T12:48:28;27.90;;;3.30;;
3777;SDS011;1904;50.076;8.660;2023-08-21T12:50:54;25.87;;;2.63;;
3777;SDS011;1904;50.076;8.660;2023-08-21T12:53:24;26.10;;;2.83;;
3777;SDS011;1904;50.076;8.660;2023-08-21T12:55:54;27.00;;;2.83;;
3777;SDS011;1904;50.076;8.660;2023-08-21T13:01:24;26.97;;;3.27;;
3777;SDS011;1904;50.076;8.660;2023-08-21T13:04:01;26.93;;;2.70;;
3777;SDS011;1904;50.076;8.660;2023-08-21T13:06:28;27.63;;;2.87;;
3777;SDS011;1904;50.076;8.660;2023-08-21T13:09:00;25.77;;;2.67;;
3777;SDS011;1904;50.076;8.660;2023-08-21T13:17:06;28.47;;;2.90;;
3777;SDS011;1904;50.076;8.660;2023-08-21T13:22:48;25.77;;;2.67;;
3777;SDS011;1904;50.076;8.660;2023-08-21T13:28:06;24.83;;;2.30;;
3777;SDS011;1904;50.076;8.660;2023-08-21T13:33:46;26.70;;;2.50;;
3777;SDS011;1904;50.076;8.660;2023-08-21T13:36:13;26.07;;;2.93;;
3777;SDS011;1904;50.076;8.660;2023-08-21T13:38:54;26.20;;;2.50;;
3777;SDS011;1904;50.076;8.660;2023-08-21T13:41:20;26.07;;;2.57;;
3777;SDS011;1904;50.076;8.660;2023-08-21T13:44:00;27.20;;;2.80;;
3777;SDS011;1904;50.076;8.660;2023-08-21T13:46:36;26.90;;;2.40;;
3777;SDS011;1904;50.076;8.660;2023-08-21T13:55:01;25.93;;;1.90;;
3777;SDS011;1904;50.076;8.660;2023-08-21T13:57:30;25.93;;;1.90;;
3777;SDS011;1904;50.076;8.660;2023-08-21T13:59:58;24.90;;;2.00;;
3777;SDS011;1904;50.076;8.660;2023-08-21T14:02:43;24.90;;;1.93;;
3777;SDS011;1904;50.076;8.660;2023-08-21T14:05:09;24.93;;;2.03;;
3777;SDS011;1904;50.076;8.660;2023-08-21T14:07:36;24.37;;;2.07;;
3777;SDS011;1904;50.076;8.660;2023-08-21T14:10:03;24.60;;;1.97;;
3777;SDS011;1904;50.076;8.660;2023-08-21T14:12:36;26.37;;;2.43;;
3777;SDS011;1904;50.076;8.660;2023-08-21T14:15:02;25.77;;;2.20;;
3777;SDS011;1904;50.076;8.660;2023-08-21T14:23:14;26.70;;;2.40;;
3777;SDS011;1904;50.076;8.660;2023-08-21T14:25:42;26.07;;;2.60;;
3777;SDS011;1904;50.076;8.660;2023-08-21T14:28:24;24.07;;;1.83;;
3777;SDS011;1904;50.076;8.660;2023-08-21T14:36:32;33.83;;;3.00;;
3777;SDS011;1904;50.076;8.660;2023-08-21T14:42:30;24.70;;;2.20;;
3777;SDS011;1904;50.076;8.660;2023-08-21T14:45:01;25.60;;;2.13;;
3777;SDS011;1904;50.076;8.660;2023-08-21T14:47:32;24.43;;;2.40;;
3777;SDS011;1904;50.076;8.660;2023-08-21T14:56:12;24.30;;;2.57;;
3777;SDS011;1904;50.076;8.660;2023-08-21T14:58:42;24.47;;;2.37;;
3777;SDS011;1904;50.076;8.660;2023-08-21T15:01:19;28.80;;;2.60;;
3777;SDS011;1904;50.076;8.660;2023-08-21T15:03:44;24.63;;;1.83;;
3777;SDS011;1904;50.076;8.660;2023-08-21T15:06:12;25.10;;;2.10;;
3777;SDS011;1904;50.076;8.660;2023-08-21T15:08:54;22.37;;;1.50;;
3777;SDS011;1904;50.076;8.660;2023-08-21T15:11:25;24.40;;;1.70;;
3777;SDS011;1904;50.076;8.660;2023-08-21T15:16:38;24.77;;;2.17;;
3777;SDS011;1904;50.076;8.660;2023-08-21T15:19:07;21.10;;;1.83;;
3777;SDS011;1904;50.076;8.660;2023-08-21T15:21:32;23.07;;;2.00;;
3777;SDS011;1904;50.076;8.660;2023-08-21T15:24:01;22.13;;;2.50;;
3777;SDS011;1904;50.076;8.660;2023-08-21T15:29:54;23.43;;;2.07;;
3777;SDS011;1904;50.076;8.660;2023-08-21T15:32:20;36.57;;;6.20;;
3777;SDS011;1904;50.076;8.660;2023-08-21T15:34:46;21.10;;;1.80;;
3777;SDS011;1904;50.076;8.660;2023-08-21T15:37:25;21.87;;;2.00;;
3777;SDS011;1904;50.076;8.660;2023-08-21T15:42:42;20.17;;;1.50;;
3777;SDS011;1904;50.076;8.660;2023-08-21T15:48:25;20.57;;;1.70;;
3777;SDS011;1904;50.076;8.660;2023-08-21T15:50:54;18.57;;;1.30;;
3777;SDS011;1904;50.076;8.660;2023-08-21T15:53:25;20.23;;;1.43;;
3777;SDS011;1904;50.076;8.660;2023-08-21T15:56:00;20.90;;;1.47;;
3777;SDS011;1904;50.076;8.660;2023-08-21T15:58:43;19.70;;;1.60;;
3777;SDS011;1904;50.076;8.660;2023-08-21T16:04:13;20.30;;;1.50;;
3777;SDS011;1904;50.076;8.660;2023-08-21T16:06:48;20.60;;;1.50;;
3777;SDS011;1904;50.076;8.660;2023-08-21T16:09:15;18.30;;;1.20;;
3777;SDS011;1904;50.076;8.660;2023-08-21T16:11:43;18.87;;;1.40;;
3777;SDS011;1904;50.076;8.660;2023-08-21T16:14:09;21.30;;;1.30;;
3777;SDS011;1904;50.076;8.660;2023-08-21T16:16:37;21.10;;;1.30;;
3777;SDS011;1904;50.076;8.660;2023-08-21T16:22:07;21.50;;;1.70;;
3777;SDS011;1904;50.076;8.660;2023-08-21T16:24:32;21.43;;;1.53;;
3777;SDS011;1904;50.076;8.660;2023-08-21T16:27:07;22.27;;;1.77;;
3777;SDS011;1904;50.076;8.660;2023-08-21T16:29:32;24.20;;;1.73;;
3777;SDS011;1904;50.076;8.660;2023-08-21T16:32:01;27.00;;;2.27;;
3777;SDS011;1904;50.076;8.660;2023-08-21T16:34:31;24.47;;;1.87;;
3777;SDS011;1904;50.076;8.660;2023-08-21T16:37:01;25.37;;;1.93;;
3777;SDS011;1904;50.076;8.660;2023-08-21T16:45:14;27.10;;;2.37;;
3777;SDS011;1904;50.076;8.660;2023-08-21T16:50:47;37.67;;;2.10;;
3777;SDS011;1904;50.076;8.660;2023-08-21T16:53:19;25.73;;;2.17;;
3777;SDS011;1904;50.076;8.660;2023-08-21T16:55:49;29.93;;;2.90;;
3777;SDS011;1904;50.076;8.660;2023-08-21T16:58:19;35.00;;;2.87;;
3777;SDS011;1904;50.076;8.660;2023-08-21T17:00:49;30.10;;;2.70;;
3777;SDS011;1904;50.076;8.660;2023-08-21T17:06:13;27.90;;;2.63;;
3777;SDS011;1904;50.076;8.660;2023-08-21T17:08:39;32.57;;;2.73;;
3777;SDS011;1904;50.076;8.660;2023-08-21T17:11:13;29.47;;;2.70;;
3777;SDS011;1904;50.076;8.660;2023-08-21T17:13:43;32.13;;;2.90;;
3777;SDS011;1904;50.076;8.660;2023-08-21T17:16:10;27.97;;;3.00;;
3777;SDS011;1904;50.076;8.660;2023-08-21T17:18:55;27.70;;;2.73;;
3777;SDS011;1904;50.076;8.660;2023-08-21T17:21:25;29.23;;;3.17;;
3777;SDS011;1904;50.076;8.660;2023-08-21T17:23:55;31.33;;;3.27;;
3777;SDS011;1904;50.076;8.660;2023-08-21T17:26:21;30.37;;;3.27;;
3777;SDS011;1904;50.076;8.660;2023-08-21T17:28:49;35.13;;;3.37;;
3777;SDS011;1904;50.076;8.660;2023-08-21T17:31:14;34.17;;;3.63;;
3777;SDS011;1904;50.076;8.660;2023-08-21T17:33:41;32.60;;;3.40;;
3777;SDS011;1904;50.076;8.660;2023-08-21T17:36:06;32.77;;;3.17;;
3777;SDS011;1904;50.076;8.660;2023-08-21T17:38:37;34.50;;;3.40;;
3777;SDS011;1904;50.076;8.660;2023-08-21T17:41:19;33.43;;;3.43;;
3777;SDS011;1904;50.076;8.660;2023-08-21T17:43:55;33.27;;;3.47;;
3777;SDS011;1904;50.076;8.660;2023-08-21T17:46:21;35.50;;;3.30;;
3777;SDS011;1904;50.076;8.660;2023-08-21T17:48:47;32.77;;;3.60;;
3777;SDS011;1904;50.076;8.660;2023-08-21T17:51:19;33.97;;;3.83;;
3777;SDS011;1904;50.076;8.660;2023-08-21T17:53:44;29.67;;;3.60;;
3777;SDS011;1904;50.076;8.660;2023-08-21T17:56:10;38.00;;;3.23;;
3777;SDS011;1904;50.076;8.660;2023-08-21T17:58:36;35.83;;;3.50;;
3777;SDS011;1904;50.076;8.660;2023-08-21T18:01:03;34.37;;;3.50;;
3777;SDS011;1904;50.076;8.660;2023-08-21T18:03:29;47.13;;;4.30;;
3777;SDS011;1904;50.076;8.660;2023-08-21T18:05:55;32.40;;;3.70;;
3777;SDS011;1904;50.076;8.660;2023-08-21T18:08:21;33.63;;;3.83;;
3777;SDS011;1904;50.076;8.660;2023-08-21T18:10:47;32.00;;;3.40;;
3777;SDS011;1904;50.076;8.660;2023-08-21T18:13:13;31.90;;;4.13;;
3777;SDS011;1904;50.076;8.660;2023-08-21T18:15:39;34.10;;;4.10;;
3777;SDS011;1904;50.076;8.660;2023-08-21T18:18:04;32.20;;;3.87;;
3777;SDS011;1904;50.076;8.660;2023-08-21T18:23:31;42.83;;;4.50;;
3777;SDS011;1904;50.076;8.660;2023-08-21T18:26:01;32.40;;;3.80;;
3777;SDS011;1904;50.076;8.660;2023-08-21T18:31:25;34.00;;;4.60;;
3777;SDS011;1904;50.076;8.660;2023-08-21T18:36:49;37.33;;;4.50;;
3777;SDS011;1904;50.076;8.660;2023-08-21T18:39:31;32.07;;;4.00;;
3777;SDS011;1904;50.076;8.660;2023-08-21T18:44:49;33.03;;;4.00;;
3777;SDS011;1904;50.076;8.660;2023-08-21T18:47:32;33.10;;;4.57;;
3777;SDS011;1904;50.076;8.660;2023-08-21T18:53:01;42.93;;;4.40;;
3777;SDS011;1904;50.076;8.660;2023-08-21T18:58:25;31.60;;;4.03;;
3777;SDS011;1904;50.076;8.660;2023-08-21T19:07:07;42.57;;;4.60;;
3777;SDS011;1904;50.076;8.660;2023-08-21T19:15:41;34.87;;;4.10;;
3777;SDS011;1904;50.076;8.660;2023-08-21T19:18:19;33.30;;;4.47;;
3777;SDS011;1904;50.076;8.660;2023-08-21T19:23:44;31.57;;;4.20;;
3777;SDS011;1904;50.076;8.660;2023-08-21T19:26:25;32.20;;;4.30;;
3777;SDS011;1904;50.076;8.660;2023-08-21T19:28:55;32.80;;;4.50;;
3777;SDS011;1904;50.076;8.660;2023-08-21T19:31:31;33.13;;;5.20;;
3777;SDS011;1904;50.076;8.660;2023-08-21T19:33:56;32.00;;;4.70;;
3777;SDS011;1904;50.076;8.660;2023-08-21T19:36:31;34.10;;;4.70;;
3777;SDS011;1904;50.076;8.660;2023-08-21T19:39:07;34.70;;;4.90;;
3777;SDS011;1904;50.076;8.660;2023-08-21T19:48:13;38.13;;;5.30;;
3777;SDS011;1904;50.076;8.660;2023-08-21T19:50:53;34.00;;;5.30;;
3777;SDS011;1904;50.076;8.660;2023-08-21T19:56:14;34.77;;;5.37;;
3777;SDS011;1904;50.076;8.660;2023-08-21T19:58:49;37.27;;;5.30;;
3777;SDS011;1904;50.076;8.660;2023-08-21T20:04:19;35.43;;;5.80;;
3777;SDS011;1904;50.076;8.660;2023-08-21T20:09:37;33.53;;;5.60;;
3777;SDS011;1904;50.076;8.660;2023-08-21T20:18:13;39.33;;;6.20;;
3777;SDS011;1904;50.076;8.660;2023-08-21T20:24:00;36.80;;;5.87;;
3777;SDS011;1904;50.076;8.660;2023-08-21T20:26:31;37.37;;;6.80;;
3777;SDS011;1904;50.076;8.660;2023-08-21T20:29:01;38.50;;;7.07;;
3777;SDS011;1904;50.076;8.660;2023-08-21T20:31:32;35.27;;;6.60;;
3777;SDS011;1904;50.076;8.660;2023-08-21T20:34:13;35.70;;;6.37;;
3777;SDS011;1904;50.076;8.660;2023-08-21T20:36:43;43.10;;;6.23;;
3777;SDS011;1904;50.076;8.660;2023-08-21T20:39:13;34.83;;;6.83;;
3777;SDS011;1904;50.076;8.660;2023-08-21T20:44:55;38.23;;;6.40;;
3777;SDS011;1904;50.076;8.660;2023-08-21T20:47:21;36.70;;;6.80;;
3777;SDS011;1904;50.076;8.660;2023-08-21T20:49:55;34.57;;;6.60;;
3777;SDS011;1904;50.076;8.660;2023-08-21T20:52:25;35.63;;;6.83;;
3777;SDS011;1904;50.076;8.660;2023-08-21T20:57:55;56.70;;;7.20;;
3777;SDS011;1904;50.076;8.660;2023-08-21T21:03:13;35.93;;;6.83;;
3777;SDS011;1904;50.076;8.660;2023-08-21T21:11:14;39.90;;;7.60;;
3777;SDS011;1904;50.076;8.660;2023-08-21T21:16:49;40.73;;;8.07;;
3777;SDS011;1904;50.076;8.660;2023-08-21T21:19:19;37.83;;;7.70;;
3777;SDS011;1904;50.076;8.660;2023-08-21T21:33:26;37.57;;;8.40;;
3777;SDS011;1904;50.076;8.660;2023-08-21T21:36:01;38.30;;;8.30;;
3777;SDS011;1904;50.076;8.660;2023-08-21T21:38:31;44.47;;;8.70;;
3777;SDS011;1904;50.076;8.660;2023-08-21T21:40:57;41.00;;;8.13;;
3777;SDS011;1904;50.076;8.660;2023-08-21T21:46:25;42.33;;;7.80;;
3777;SDS011;1904;50.076;8.660;2023-08-21T21:48:55;37.77;;;8.63;;
3777;SDS011;1904;50.076;8.660;2023-08-21T21:54:44;43.70;;;8.90;;
3777;SDS011;1904;50.076;8.660;2023-08-21T22:00:25;37.40;;;9.07;;
3777;SDS011;1904;50.076;8.660;2023-08-21T22:06:01;39.93;;;8.70;;
3777;SDS011;1904;50.076;8.660;2023-08-21T22:08:27;36.87;;;9.23;;
3777;SDS011;1904;50.076;8.660;2023-08-21T22:10:54;38.07;;;9.10;;
3777;SDS011;1904;50.076;8.660;2023-08-21T22:13:25;40.10;;;9.30;;
3777;SDS011;1904;50.076;8.660;2023-08-21T22:16:07;51.73;;;11.77;;
3777;SDS011;1904;50.076;8.660;2023-08-21T22:18:37;42.90;;;9.57;;
3777;SDS011;1904;50.076;8.660;2023-08-21T22:21:13;42.37;;;9.63;;
3777;SDS011;1904;50.076;8.660;2023-08-21T22:26:37;43.57;;;9.40;;
3777;SDS011;1904;50.076;8.660;2023-08-21T22:29:19;41.37;;;9.00;;
3777;SDS011;1904;50.076;8.660;2023-08-21T22:31:49;41.40;;;10.50;;
3777;SDS011;1904;50.076;8.660;2023-08-21T22:34:31;42.67;;;10.20;;
3777;SDS011;1904;50.076;8.660;2023-08-21T22:37:07;47.20;;;10.83;;
3777;SDS011;1904;50.076;8.660;2023-08-21T22:39:43;46.07;;;9.60;;
3777;SDS011;1904;50.076;8.660;2023-08-21T22:42:09;45.30;;;10.43;;
3777;SDS011;1904;50.076;8.660;2023-08-21T22:44:37;40.70;;;9.83;;
3777;SDS011;1904;50.076;8.660;2023-08-21T22:47:08;50.27;;;10.03;;